sensor_id;sensor_type;location;lat;lon;timestamp;temperature;humidity
18335;DHT22;9293;49.524;10.964;2024-02-26T00:00:32;2.10;99.90
18335;DHT22;9293;49.524;10.964;2024-02-26T00:03:02;2.20;99.90
18335;DHT22;9293;49.524;10.964;2024-02-26T00:05:31;2.30;99.90
18335;DHT22;9293;49.524;10.964;2024-02-26T00:07:59;2.20;99.90
18335;DHT22;9293;49.524;10.964;2024-02-26T00:10:31;2.10;99.90
18335;DHT22;9293;49.524;10.964;2024-02-26T00:12:59;1.90;99.90
18335;DHT22;9293;49.524;10.964;2024-02-26T00:15:28;1.90;99.90
18335;DHT22;9293;49.524;10.964;2024-02-26T00:17:56;2.00;99.90
18335;DHT22;9293;49.524;10.964;2024-02-26T00:20:24;2.00;99.90
18335;DHT22;9293;49.524;10.964;2024-02-26T00:22:53;2.10;99.90
18335;DHT22;9293;49.524;10.964;2024-02-26T00:25:21;2.10;99.90
18335;DHT22;9293;49.524;10.964;2024-02-26T00:27:49;1.90;99.90
18335;DHT22;9293;49.524;10.964;2024-02-26T00:30:17;1.80;99.90
18335;DHT22;9293;49.524;10.964;2024-02-26T00:32:45;1.70;99.90
18335;DHT22;9293;49.524;10.964;2024-02-26T00:35:14;1.80;99.90
18335;DHT22;9293;49.524;10.964;2024-02-26T00:37:43;1.80;99.90
18335;DHT22;9293;49.524;10.964;2024-02-26T00:40:12;1.80;99.90
18335;DHT22;9293;49.524;10.964;2024-02-26T00:42:40;1.80;99.90
18335;DHT22;9293;49.524;10.964;2024-02-26T00:45:14;1.70;99.90
18335;DHT22;9293;49.524;10.964;2024-02-26T00:47:46;1.60;99.90
18335;DHT22;9293;49.524;10.964;2024-02-26T00:50:16;1.70;99.90
18335;DHT22;9293;49.524;10.964;2024-02-26T00:52:44;1.70;99.90
18335;DHT22;9293;49.524;10.964;2024-02-26T00:55:13;1.60;99.90
18335;DHT22;9293;49.524;10.964;2024-02-26T00:57:41;1.50;99.90
18335;DHT22;9293;49.524;10.964;2024-02-26T01:00:16;1.50;99.90
18335;DHT22;9293;49.524;10.964;2024-02-26T01:02:45;1.50;99.90
18335;DHT22;9293;49.524;10.964;2024-02-26T01:05:16;1.60;99.90
18335;DHT22;9293;49.524;10.964;2024-02-26T01:07:44;1.60;99.90
18335;DHT22;9293;49.524;10.964;2024-02-26T01:10:13;1.50;99.90
18335;DHT22;9293;49.524;10.964;2024-02-26T01:12:41;1.50;99.90
18335;DHT22;9293;49.524;10.964;2024-02-26T01:15:09;1.40;99.90
18335;DHT22;9293;49.524;10.964;2024-02-26T01:17:38;1.40;99.90
18335;DHT22;9293;49.524;10.964;2024-02-26T01:20:07;1.40;99.90
18335;DHT22;9293;49.524;10.964;2024-02-26T01:22:37;1.50;99.90
18335;DHT22;9293;49.524;10.964;2024-02-26T01:25:05;1.50;99.90
18335;DHT22;9293;49.524;10.964;2024-02-26T01:27:33;1.50;99.90
18335;DHT22;9293;49.524;10.964;2024-02-26T01:30:05;1.40;99.90
18335;DHT22;9293;49.524;10.964;2024-02-26T01:32:34;1.30;99.90
18335;DHT22;9293;49.524;10.964;2024-02-26T01:35:04;1.40;99.90
18335;DHT22;9293;49.524;10.964;2024-02-26T01:37:33;1.50;99.90
18335;DHT22;9293;49.524;10.964;2024-02-26T01:40:01;1.60;99.90
18335;DHT22;9293;49.524;10.964;2024-02-26T01:42:32;1.70;99.90
18335;DHT22;9293;49.524;10.964;2024-02-26T01:45:00;1.60;99.90
18335;DHT22;9293;49.524;10.964;2024-02-26T01:47:29;1.60;99.90
18335;DHT22;9293;49.524;10.964;2024-02-26T01:49:57;1.60;99.90
18335;DHT22;9293;49.524;10.964;2024-02-26T01:52:26;1.50;99.90
18335;DHT22;9293;49.524;10.964;2024-02-26T01:54:54;1.50;99.90
18335;DHT22;9293;49.524;10.964;2024-02-26T01:57:23;1.60;99.90
18335;DHT22;9293;49.524;10.964;2024-02-26T01:59:51;1.70;99.90
18335;DHT22;9293;49.524;10.964;2024-02-26T02:02:19;1.80;99.90
18335;DHT22;9293;49.524;10.964;2024-02-26T02:04:48;1.80;99.90
18335;DHT22;9293;49.524;10.964;2024-02-26T02:07:20;1.70;99.90
18335;DHT22;9293;49.524;10.964;2024-02-26T02:09:49;1.70;99.90
18335;DHT22;9293;49.524;10.964;2024-02-26T02:12:18;1.80;99.90
18335;DHT22;9293;49.524;10.964;2024-02-26T02:14:47;1.80;99.90
18335;DHT22;9293;49.524;10.964;2024-02-26T02:17:15;1.80;99.90
18335;DHT22;9293;49.524;10.964;2024-02-26T02:19:44;1.90;99.90
18335;DHT22;9293;49.524;10.964;2024-02-26T02:22:12;1.90;99.90
18335;DHT22;9293;49.524;10.964;2024-02-26T02:24:40;2.00;99.90
18335;DHT22;9293;49.524;10.964;2024-02-26T02:27:08;2.20;99.90
18335;DHT22;9293;49.524;10.964;2024-02-26T02:29:37;2.20;99.90
18335;DHT22;9293;49.524;10.964;2024-02-26T02:32:05;2.30;99.90
18335;DHT22;9293;49.524;10.964;2024-02-26T02:34:34;2.30;99.90
18335;DHT22;9293;49.524;10.964;2024-02-26T02:37:03;2.20;99.90
18335;DHT22;9293;49.524;10.964;2024-02-26T02:39:31;2.20;99.90
18335;DHT22;9293;49.524;10.964;2024-02-26T02:42:00;2.20;99.90
18335;DHT22;9293;49.524;10.964;2024-02-26T02:44:28;2.30;99.90
18335;DHT22;9293;49.524;10.964;2024-02-26T02:46:56;2.40;99.90
18335;DHT22;9293;49.524;10.964;2024-02-26T02:49:24;2.30;99.90
18335;DHT22;9293;49.524;10.964;2024-02-26T02:51:53;2.40;99.90
18335;DHT22;9293;49.524;10.964;2024-02-26T02:54:22;2.50;99.90
18335;DHT22;9293;49.524;10.964;2024-02-26T02:56:50;2.50;99.90
18335;DHT22;9293;49.524;10.964;2024-02-26T02:59:18;2.60;99.90
18335;DHT22;9293;49.524;10.964;2024-02-26T03:01:47;2.50;99.90
18335;DHT22;9293;49.524;10.964;2024-02-26T03:04:15;2.50;99.90
18335;DHT22;9293;49.524;10.964;2024-02-26T03:06:43;2.60;99.90
18335;DHT22;9293;49.524;10.964;2024-02-26T03:09:12;2.60;99.90
18335;DHT22;9293;49.524;10.964;2024-02-26T03:11:40;2.70;99.90
18335;DHT22;9293;49.524;10.964;2024-02-26T03:14:08;2.80;99.90
18335;DHT22;9293;49.524;10.964;2024-02-26T03:16:37;2.80;99.90
18335;DHT22;9293;49.524;10.964;2024-02-26T03:19:06;2.90;99.90
18335;DHT22;9293;49.524;10.964;2024-02-26T03:21:34;2.90;99.90
18335;DHT22;9293;49.524;10.964;2024-02-26T03:24:02;3.00;99.90
18335;DHT22;9293;49.524;10.964;2024-02-26T03:26:31;3.10;99.90
18335;DHT22;9293;49.524;10.964;2024-02-26T03:28:59;3.10;99.90
18335;DHT22;9293;49.524;10.964;2024-02-26T03:31:27;3.00;99.90
18335;DHT22;9293;49.524;10.964;2024-02-26T03:33:55;2.90;99.90
18335;DHT22;9293;49.524;10.964;2024-02-26T03:36:24;2.80;99.90
18335;DHT22;9293;49.524;10.964;2024-02-26T03:38:52;2.70;99.90
18335;DHT22;9293;49.524;10.964;2024-02-26T03:41:21;2.70;99.90
18335;DHT22;9293;49.524;10.964;2024-02-26T03:43:49;2.70;99.90
18335;DHT22;9293;49.524;10.964;2024-02-26T03:46:17;2.60;99.90
18335;DHT22;9293;49.524;10.964;2024-02-26T03:48:45;2.60;99.90
18335;DHT22;9293;49.524;10.964;2024-02-26T03:51:14;2.70;99.90
18335;DHT22;9293;49.524;10.964;2024-02-26T03:53:42;2.80;99.90
18335;DHT22;9293;49.524;10.964;2024-02-26T03:56:14;2.70;99.90
18335;DHT22;9293;49.524;10.964;2024-02-26T03:58:45;2.70;99.90
18335;DHT22;9293;49.524;10.964;2024-02-26T04:01:14;2.70;99.90
18335;DHT22;9293;49.524;10.964;2024-02-26T04:03:43;2.70;99.90
18335;DHT22;9293;49.524;10.964;2024-02-26T04:06:15;2.80;99.90
18335;DHT22;9293;49.524;10.964;2024-02-26T04:08:46;2.80;99.90
18335;DHT22;9293;49.524;10.964;2024-02-26T04:11:15;2.90;99.90
18335;DHT22;9293;49.524;10.964;2024-02-26T04:13:46;2.70;99.90
18335;DHT22;9293;49.524;10.964;2024-02-26T04:16:17;2.50;99.90
18335;DHT22;9293;49.524;10.964;2024-02-26T04:18:45;2.50;99.90
18335;DHT22;9293;49.524;10.964;2024-02-26T04:21:13;2.70;99.90
18335;DHT22;9293;49.524;10.964;2024-02-26T04:23:42;2.80;99.90
18335;DHT22;9293;49.524;10.964;2024-02-26T04:26:10;2.80;99.90
18335;DHT22;9293;49.524;10.964;2024-02-26T04:28:38;2.80;99.90
18335;DHT22;9293;49.524;10.964;2024-02-26T04:31:06;2.70;99.90
18335;DHT22;9293;49.524;10.964;2024-02-26T04:33:35;2.70;99.90
18335;DHT22;9293;49.524;10.964;2024-02-26T04:36:04;2.80;99.90
18335;DHT22;9293;49.524;10.964;2024-02-26T04:38:32;2.80;99.90
18335;DHT22;9293;49.524;10.964;2024-02-26T04:41:00;2.90;99.90
18335;DHT22;9293;49.524;10.964;2024-02-26T04:43:29;2.90;99.90
18335;DHT22;9293;49.524;10.964;2024-02-26T04:45:57;2.80;99.90
18335;DHT22;9293;49.524;10.964;2024-02-26T04:48:27;2.70;99.90
18335;DHT22;9293;49.524;10.964;2024-02-26T04:50:55;2.60;99.90
18335;DHT22;9293;49.524;10.964;2024-02-26T04:53:24;2.70;99.90
18335;DHT22;9293;49.524;10.964;2024-02-26T04:55:52;2.80;99.90
18335;DHT22;9293;49.524;10.964;2024-02-26T04:58:20;3.00;99.90
18335;DHT22;9293;49.524;10.964;2024-02-26T05:00:48;3.00;99.90
18335;DHT22;9293;49.524;10.964;2024-02-26T05:03:17;3.10;99.90
18335;DHT22;9293;49.524;10.964;2024-02-26T05:05:45;3.10;99.90
18335;DHT22;9293;49.524;10.964;2024-02-26T05:08:14;3.10;99.90
18335;DHT22;9293;49.524;10.964;2024-02-26T05:10:45;3.20;99.90
18335;DHT22;9293;49.524;10.964;2024-02-26T05:13:13;3.10;99.90
18335;DHT22;9293;49.524;10.964;2024-02-26T05:15:43;3.00;99.90
18335;DHT22;9293;49.524;10.964;2024-02-26T05:18:13;2.90;99.90
18335;DHT22;9293;49.524;10.964;2024-02-26T05:20:41;3.00;99.90
18335;DHT22;9293;49.524;10.964;2024-02-26T05:23:10;3.00;99.90
18335;DHT22;9293;49.524;10.964;2024-02-26T05:25:40;3.10;99.90
18335;DHT22;9293;49.524;10.964;2024-02-26T05:28:13;3.10;99.90
18335;DHT22;9293;49.524;10.964;2024-02-26T05:30:45;3.10;99.90
18335;DHT22;9293;49.524;10.964;2024-02-26T05:33:13;3.00;99.90
18335;DHT22;9293;49.524;10.964;2024-02-26T05:35:44;2.90;99.90
18335;DHT22;9293;49.524;10.964;2024-02-26T05:38:13;2.90;99.90
18335;DHT22;9293;49.524;10.964;2024-02-26T05:40:41;2.90;99.90
18335;DHT22;9293;49.524;10.964;2024-02-26T05:43:09;3.00;99.90
18335;DHT22;9293;49.524;10.964;2024-02-26T05:45:37;3.00;99.90
18335;DHT22;9293;49.524;10.964;2024-02-26T05:48:06;3.00;99.90
18335;DHT22;9293;49.524;10.964;2024-02-26T05:50:34;3.00;99.90
18335;DHT22;9293;49.524;10.964;2024-02-26T05:53:02;3.10;99.90
18335;DHT22;9293;49.524;10.964;2024-02-26T05:55:31;3.20;99.90
18335;DHT22;9293;49.524;10.964;2024-02-26T05:57:59;3.30;99.90
18335;DHT22;9293;49.524;10.964;2024-02-26T06:00:27;3.40;99.90
18335;DHT22;9293;49.524;10.964;2024-02-26T06:02:56;3.40;99.90
18335;DHT22;9293;49.524;10.964;2024-02-26T06:05:24;3.40;99.90
18335;DHT22;9293;49.524;10.964;2024-02-26T06:07:52;3.40;99.90
18335;DHT22;9293;49.524;10.964;2024-02-26T06:10:20;3.30;99.90
18335;DHT22;9293;49.524;10.964;2024-02-26T06:12:49;3.40;99.90
18335;DHT22;9293;49.524;10.964;2024-02-26T06:15:17;3.50;99.90
18335;DHT22;9293;49.524;10.964;2024-02-26T06:17:46;3.50;99.90
18335;DHT22;9293;49.524;10.964;2024-02-26T06:20:14;3.60;99.90
18335;DHT22;9293;49.524;10.964;2024-02-26T06:22:42;3.70;99.90
18335;DHT22;9293;49.524;10.964;2024-02-26T06:25:11;3.80;99.90
18335;DHT22;9293;49.524;10.964;2024-02-26T06:27:39;3.80;99.90
18335;DHT22;9293;49.524;10.964;2024-02-26T06:30:08;3.90;99.90
18335;DHT22;9293;49.524;10.964;2024-02-26T06:32:39;4.00;99.90
18335;DHT22;9293;49.524;10.964;2024-02-26T06:35:07;4.00;99.90
18335;DHT22;9293;49.524;10.964;2024-02-26T06:37:37;4.00;99.90
18335;DHT22;9293;49.524;10.964;2024-02-26T06:40:06;4.00;99.90
18335;DHT22;9293;49.524;10.964;2024-02-26T06:42:34;3.90;99.90
18335;DHT22;9293;49.524;10.964;2024-02-26T06:45:04;3.90;99.90
18335;DHT22;9293;49.524;10.964;2024-02-26T06:47:32;3.90;99.90
18335;DHT22;9293;49.524;10.964;2024-02-26T06:50:01;4.00;99.90
18335;DHT22;9293;49.524;10.964;2024-02-26T06:52:29;4.10;99.90
18335;DHT22;9293;49.524;10.964;2024-02-26T06:54:57;4.20;99.90
18335;DHT22;9293;49.524;10.964;2024-02-26T06:57:25;4.30;99.90
18335;DHT22;9293;49.524;10.964;2024-02-26T06:59:54;4.30;99.90
18335;DHT22;9293;49.524;10.964;2024-02-26T07:02:22;4.40;99.90
18335;DHT22;9293;49.524;10.964;2024-02-26T07:04:50;4.50;99.90
18335;DHT22;9293;49.524;10.964;2024-02-26T07:07:19;4.60;99.90
18335;DHT22;9293;49.524;10.964;2024-02-26T07:09:47;4.60;99.90
18335;DHT22;9293;49.524;10.964;2024-02-26T07:12:16;4.70;99.90
18335;DHT22;9293;49.524;10.964;2024-02-26T07:14:44;4.70;99.90
18335;DHT22;9293;49.524;10.964;2024-02-26T07:17:15;4.80;99.90
18335;DHT22;9293;49.524;10.964;2024-02-26T07:19:44;4.80;99.90
18335;DHT22;9293;49.524;10.964;2024-02-26T07:22:12;4.80;99.90
18335;DHT22;9293;49.524;10.964;2024-02-26T07:24:41;4.90;99.90
18335;DHT22;9293;49.524;10.964;2024-02-26T07:27:10;4.90;99.90
18335;DHT22;9293;49.524;10.964;2024-02-26T07:29:38;4.80;99.90
18335;DHT22;9293;49.524;10.964;2024-02-26T07:32:07;4.80;99.90
18335;DHT22;9293;49.524;10.964;2024-02-26T07:34:35;4.80;99.90
18335;DHT22;9293;49.524;10.964;2024-02-26T07:37:03;5.00;99.90
18335;DHT22;9293;49.524;10.964;2024-02-26T07:39:32;5.10;99.90
18335;DHT22;9293;49.524;10.964;2024-02-26T07:42:00;5.20;99.90
18335;DHT22;9293;49.524;10.964;2024-02-26T07:44:28;5.30;99.90
18335;DHT22;9293;49.524;10.964;2024-02-26T07:46:56;5.50;99.90
18335;DHT22;9293;49.524;10.964;2024-02-26T07:49:25;5.60;99.90
18335;DHT22;9293;49.524;10.964;2024-02-26T07:51:53;5.80;99.90
18335;DHT22;9293;49.524;10.964;2024-02-26T07:54:22;5.90;99.90
18335;DHT22;9293;49.524;10.964;2024-02-26T07:56:51;6.00;99.90
18335;DHT22;9293;49.524;10.964;2024-02-26T07:59:19;6.20;99.90
18335;DHT22;9293;49.524;10.964;2024-02-26T08:01:51;6.20;99.90
18335;DHT22;9293;49.524;10.964;2024-02-26T08:04:24;6.20;99.90
18335;DHT22;9293;49.524;10.964;2024-02-26T08:06:54;6.20;99.90
18335;DHT22;9293;49.524;10.964;2024-02-26T08:09:23;6.20;99.90
18335;DHT22;9293;49.524;10.964;2024-02-26T08:11:51;6.30;99.90
18335;DHT22;9293;49.524;10.964;2024-02-26T08:14:20;6.30;99.90
18335;DHT22;9293;49.524;10.964;2024-02-26T08:16:48;6.30;99.90
18335;DHT22;9293;49.524;10.964;2024-02-26T08:19:17;6.30;99.90
18335;DHT22;9293;49.524;10.964;2024-02-26T08:21:45;6.20;99.90
18335;DHT22;9293;49.524;10.964;2024-02-26T08:24:14;6.20;99.90
18335;DHT22;9293;49.524;10.964;2024-02-26T08:26:42;6.30;99.90
18335;DHT22;9293;49.524;10.964;2024-02-26T08:29:10;6.30;99.90
18335;DHT22;9293;49.524;10.964;2024-02-26T08:31:38;6.30;99.90
18335;DHT22;9293;49.524;10.964;2024-02-26T08:34:07;6.30;99.90
18335;DHT22;9293;49.524;10.964;2024-02-26T08:36:35;6.30;99.90
18335;DHT22;9293;49.524;10.964;2024-02-26T08:39:04;6.40;99.90
18335;DHT22;9293;49.524;10.964;2024-02-26T08:41:32;6.40;99.90
18335;DHT22;9293;49.524;10.964;2024-02-26T08:44:00;6.40;99.90
18335;DHT22;9293;49.524;10.964;2024-02-26T08:46:28;6.40;99.90
18335;DHT22;9293;49.524;10.964;2024-02-26T08:48:57;6.50;99.90
18335;DHT22;9293;49.524;10.964;2024-02-26T08:51:25;6.50;99.90
18335;DHT22;9293;49.524;10.964;2024-02-26T08:53:58;6.50;99.90
18335;DHT22;9293;49.524;10.964;2024-02-26T08:56:29;6.50;99.90
18335;DHT22;9293;49.524;10.964;2024-02-26T08:59:00;6.50;99.90
18335;DHT22;9293;49.524;10.964;2024-02-26T09:01:31;6.60;99.90
18335;DHT22;9293;49.524;10.964;2024-02-26T09:04:00;6.60;99.90
18335;DHT22;9293;49.524;10.964;2024-02-26T09:06:29;6.70;99.90
18335;DHT22;9293;49.524;10.964;2024-02-26T09:08:57;6.80;99.90
18335;DHT22;9293;49.524;10.964;2024-02-26T09:11:28;6.90;99.90
18335;DHT22;9293;49.524;10.964;2024-02-26T09:13:56;6.90;99.90
18335;DHT22;9293;49.524;10.964;2024-02-26T09:16:25;7.00;99.90
18335;DHT22;9293;49.524;10.964;2024-02-26T09:18:53;7.10;99.90
18335;DHT22;9293;49.524;10.964;2024-02-26T09:21:21;7.20;99.90
18335;DHT22;9293;49.524;10.964;2024-02-26T09:23:52;7.30;99.90
18335;DHT22;9293;49.524;10.964;2024-02-26T09:26:20;7.30;99.90
18335;DHT22;9293;49.524;10.964;2024-02-26T09:28:49;7.40;99.90
18335;DHT22;9293;49.524;10.964;2024-02-26T09:31:20;7.50;99.90
18335;DHT22;9293;49.524;10.964;2024-02-26T09:33:48;7.70;99.90
18335;DHT22;9293;49.524;10.964;2024-02-26T09:36:17;7.90;99.90
18335;DHT22;9293;49.524;10.964;2024-02-26T09:38:45;8.00;99.90
18335;DHT22;9293;49.524;10.964;2024-02-26T09:41:28;8.10;99.90
18335;DHT22;9293;49.524;10.964;2024-02-26T09:43:58;8.20;99.90
18335;DHT22;9293;49.524;10.964;2024-02-26T09:46:27;8.00;99.90
18335;DHT22;9293;49.524;10.964;2024-02-26T09:48:56;8.10;99.90
18335;DHT22;9293;49.524;10.964;2024-02-26T09:51:26;8.00;99.90
18335;DHT22;9293;49.524;10.964;2024-02-26T09:53:54;8.30;99.90
18335;DHT22;9293;49.524;10.964;2024-02-26T09:56:27;8.40;99.90
18335;DHT22;9293;49.524;10.964;2024-02-26T09:58:58;8.50;99.90
18335;DHT22;9293;49.524;10.964;2024-02-26T10:01:29;8.60;99.90
18335;DHT22;9293;49.524;10.964;2024-02-26T10:04:01;8.90;99.90
18335;DHT22;9293;49.524;10.964;2024-02-26T10:06:31;9.00;99.90
18335;DHT22;9293;49.524;10.964;2024-02-26T10:09:00;9.00;99.90
18335;DHT22;9293;49.524;10.964;2024-02-26T10:11:28;9.00;99.90
18335;DHT22;9293;49.524;10.964;2024-02-26T10:14:01;9.00;99.90
18335;DHT22;9293;49.524;10.964;2024-02-26T10:16:29;8.90;99.90
18335;DHT22;9293;49.524;10.964;2024-02-26T10:18:57;9.00;99.90
18335;DHT22;9293;49.524;10.964;2024-02-26T10:21:27;9.20;99.90
18335;DHT22;9293;49.524;10.964;2024-02-26T10:23:56;9.40;99.90
18335;DHT22;9293;49.524;10.964;2024-02-26T10:26:24;9.50;99.90
18335;DHT22;9293;49.524;10.964;2024-02-26T10:28:52;9.70;99.90
18335;DHT22;9293;49.524;10.964;2024-02-26T10:31:21;9.90;99.90
18335;DHT22;9293;49.524;10.964;2024-02-26T10:33:50;10.00;99.90
18335;DHT22;9293;49.524;10.964;2024-02-26T10:36:26;10.00;99.90
18335;DHT22;9293;49.524;10.964;2024-02-26T10:39:13;10.00;99.90
18335;DHT22;9293;49.524;10.964;2024-02-26T10:41:43;9.80;99.90
18335;DHT22;9293;49.524;10.964;2024-02-26T10:44:20;9.80;99.90
18335;DHT22;9293;49.524;10.964;2024-02-26T10:46:48;9.90;99.90
18335;DHT22;9293;49.524;10.964;2024-02-26T10:49:20;10.00;99.90
18335;DHT22;9293;49.524;10.964;2024-02-26T10:51:56;10.00;99.90
18335;DHT22;9293;49.524;10.964;2024-02-26T10:54:29;10.20;99.90
18335;DHT22;9293;49.524;10.964;2024-02-26T10:56:59;10.30;99.90
18335;DHT22;9293;49.524;10.964;2024-02-26T10:59:27;10.50;99.90
18335;DHT22;9293;49.524;10.964;2024-02-26T11:01:56;10.70;99.90
18335;DHT22;9293;49.524;10.964;2024-02-26T11:04:25;11.10;99.90
18335;DHT22;9293;49.524;10.964;2024-02-26T11:06:57;11.50;99.90
18335;DHT22;9293;49.524;10.964;2024-02-26T11:09:26;12.10;99.90
18335;DHT22;9293;49.524;10.964;2024-02-26T11:11:57;12.60;99.90
18335;DHT22;9293;49.524;10.964;2024-02-26T11:14:26;12.80;99.90
18335;DHT22;9293;49.524;10.964;2024-02-26T11:16:56;13.00;99.90
18335;DHT22;9293;49.524;10.964;2024-02-26T11:19:26;13.40;99.90
18335;DHT22;9293;49.524;10.964;2024-02-26T11:21:55;13.80;99.90
18335;DHT22;9293;49.524;10.964;2024-02-26T11:24:29;14.20;99.90
18335;DHT22;9293;49.524;10.964;2024-02-26T11:27:02;14.60;99.90
18335;DHT22;9293;49.524;10.964;2024-02-26T11:29:39;15.20;99.90
18335;DHT22;9293;49.524;10.964;2024-02-26T11:32:10;15.30;99.90
18335;DHT22;9293;49.524;10.964;2024-02-26T11:34:39;15.30;99.90
18335;DHT22;9293;49.524;10.964;2024-02-26T11:37:14;15.80;99.90
18335;DHT22;9293;49.524;10.964;2024-02-26T11:39:43;16.20;99.90
18335;DHT22;9293;49.524;10.964;2024-02-26T11:42:16;16.20;99.90
18335;DHT22;9293;49.524;10.964;2024-02-26T11:44:45;16.20;99.90
18335;DHT22;9293;49.524;10.964;2024-02-26T11:47:18;15.90;99.90
18335;DHT22;9293;49.524;10.964;2024-02-26T11:49:46;15.60;99.90
18335;DHT22;9293;49.524;10.964;2024-02-26T11:52:16;15.40;99.90
18335;DHT22;9293;49.524;10.964;2024-02-26T11:54:52;15.20;99.90
18335;DHT22;9293;49.524;10.964;2024-02-26T11:57:37;15.00;99.90
18335;DHT22;9293;49.524;10.964;2024-02-26T12:05:17;14.20;99.90
18335;DHT22;9293;49.524;10.964;2024-02-26T12:07:49;14.30;99.90
18335;DHT22;9293;49.524;10.964;2024-02-26T12:12:59;14.50;99.90
18335;DHT22;9293;49.524;10.964;2024-02-26T12:15:41;14.70;99.90
18335;DHT22;9293;49.524;10.964;2024-02-26T12:18:17;14.70;99.90
18335;DHT22;9293;49.524;10.964;2024-02-26T12:20:46;14.70;99.90
18335;DHT22;9293;49.524;10.964;2024-02-26T12:23:18;15.00;99.90
18335;DHT22;9293;49.524;10.964;2024-02-26T12:25:46;15.10;99.90
18335;DHT22;9293;49.524;10.964;2024-02-26T12:28:16;15.20;99.90
18335;DHT22;9293;49.524;10.964;2024-02-26T12:30:44;15.20;99.90
18335;DHT22;9293;49.524;10.964;2024-02-26T12:33:25;15.10;99.90
18335;DHT22;9293;49.524;10.964;2024-02-26T12:35:54;15.00;99.90
18335;DHT22;9293;49.524;10.964;2024-02-26T12:38:23;14.80;99.90
18335;DHT22;9293;49.524;10.964;2024-02-26T12:40:52;14.90;99.90
18335;DHT22;9293;49.524;10.964;2024-02-26T12:43:20;15.20;99.90
18335;DHT22;9293;49.524;10.964;2024-02-26T12:45:49;15.40;99.90
18335;DHT22;9293;49.524;10.964;2024-02-26T12:48:19;15.30;99.90
18335;DHT22;9293;49.524;10.964;2024-02-26T12:50:48;15.80;99.90
18335;DHT22;9293;49.524;10.964;2024-02-26T12:53:17;15.90;99.90
18335;DHT22;9293;49.524;10.964;2024-02-26T12:55:46;16.30;99.90
18335;DHT22;9293;49.524;10.964;2024-02-26T12:58:14;16.60;99.90
18335;DHT22;9293;49.524;10.964;2024-02-26T13:00:43;16.80;99.90
18335;DHT22;9293;49.524;10.964;2024-02-26T13:03:11;17.00;99.90
18335;DHT22;9293;49.524;10.964;2024-02-26T13:05:40;17.30;99.90
18335;DHT22;9293;49.524;10.964;2024-02-26T13:08:08;17.70;99.90
18335;DHT22;9293;49.524;10.964;2024-02-26T13:10:37;18.00;99.90
18335;DHT22;9293;49.524;10.964;2024-02-26T13:13:05;18.30;99.90
18335;DHT22;9293;49.524;10.964;2024-02-26T13:15:33;18.10;99.90
18335;DHT22;9293;49.524;10.964;2024-02-26T13:18:15;18.20;99.90
18335;DHT22;9293;49.524;10.964;2024-02-26T13:20:44;18.00;99.90
18335;DHT22;9293;49.524;10.964;2024-02-26T13:23:13;18.50;99.90
18335;DHT22;9293;49.524;10.964;2024-02-26T13:25:41;18.90;99.90
18335;DHT22;9293;49.524;10.964;2024-02-26T13:28:16;18.90;99.90
18335;DHT22;9293;49.524;10.964;2024-02-26T13:31:11;18.60;99.90
18335;DHT22;9293;49.524;10.964;2024-02-26T13:33:39;18.10;99.90
18335;DHT22;9293;49.524;10.964;2024-02-26T13:36:08;17.70;99.90
18335;DHT22;9293;49.524;10.964;2024-02-26T13:38:39;17.40;99.90
18335;DHT22;9293;49.524;10.964;2024-02-26T13:41:10;17.30;99.90
18335;DHT22;9293;49.524;10.964;2024-02-26T13:43:38;17.40;99.90
18335;DHT22;9293;49.524;10.964;2024-02-26T13:46:07;17.30;99.90
18335;DHT22;9293;49.524;10.964;2024-02-26T13:48:36;17.30;99.90
18335;DHT22;9293;49.524;10.964;2024-02-26T13:51:05;17.20;99.90
18335;DHT22;9293;49.524;10.964;2024-02-26T13:53:33;16.80;99.90
18335;DHT22;9293;49.524;10.964;2024-02-26T13:56:02;16.50;99.90
18335;DHT22;9293;49.524;10.964;2024-02-26T13:58:32;15.90;99.90
18335;DHT22;9293;49.524;10.964;2024-02-26T14:01:00;15.60;99.90
18335;DHT22;9293;49.524;10.964;2024-02-26T14:03:31;15.70;99.90
18335;DHT22;9293;49.524;10.964;2024-02-26T14:05:59;15.70;99.90
18335;DHT22;9293;49.524;10.964;2024-02-26T14:08:28;15.50;99.90
18335;DHT22;9293;49.524;10.964;2024-02-26T14:10:56;15.50;99.90
18335;DHT22;9293;49.524;10.964;2024-02-26T14:13:24;15.30;99.90
18335;DHT22;9293;49.524;10.964;2024-02-26T14:15:53;15.10;99.90
18335;DHT22;9293;49.524;10.964;2024-02-26T14:18:21;15.00;99.90
18335;DHT22;9293;49.524;10.964;2024-02-26T14:20:50;14.70;99.90
18335;DHT22;9293;49.524;10.964;2024-02-26T14:23:18;14.50;99.90
18335;DHT22;9293;49.524;10.964;2024-02-26T14:25:47;14.40;99.90
18335;DHT22;9293;49.524;10.964;2024-02-26T14:28:15;14.10;99.90
18335;DHT22;9293;49.524;10.964;2024-02-26T14:30:54;14.00;99.90
18335;DHT22;9293;49.524;10.964;2024-02-26T14:33:22;14.10;99.90
18335;DHT22;9293;49.524;10.964;2024-02-26T14:35:53;14.10;99.90
18335;DHT22;9293;49.524;10.964;2024-02-26T14:38:21;14.00;99.90
18335;DHT22;9293;49.524;10.964;2024-02-26T14:40:51;13.80;99.90
18335;DHT22;9293;49.524;10.964;2024-02-26T14:43:20;13.60;99.90
18335;DHT22;9293;49.524;10.964;2024-02-26T14:45:48;13.40;99.90
18335;DHT22;9293;49.524;10.964;2024-02-26T14:48:16;13.20;99.90
18335;DHT22;9293;49.524;10.964;2024-02-26T14:50:45;13.20;99.90
18335;DHT22;9293;49.524;10.964;2024-02-26T14:53:13;13.20;99.90
18335;DHT22;9293;49.524;10.964;2024-02-26T14:55:42;13.20;99.90
18335;DHT22;9293;49.524;10.964;2024-02-26T14:58:10;13.00;99.90
18335;DHT22;9293;49.524;10.964;2024-02-26T15:00:41;12.90;99.90
18335;DHT22;9293;49.524;10.964;2024-02-26T15:03:09;12.80;99.90
18335;DHT22;9293;49.524;10.964;2024-02-26T15:05:37;12.70;99.90
18335;DHT22;9293;49.524;10.964;2024-02-26T15:08:06;12.70;99.90
18335;DHT22;9293;49.524;10.964;2024-02-26T15:10:37;12.60;99.90
18335;DHT22;9293;49.524;10.964;2024-02-26T15:13:05;12.60;99.90
18335;DHT22;9293;49.524;10.964;2024-02-26T15:15:35;12.60;99.90
18335;DHT22;9293;49.524;10.964;2024-02-26T15:18:04;12.60;99.90
18335;DHT22;9293;49.524;10.964;2024-02-26T15:20:32;12.60;99.90
18335;DHT22;9293;49.524;10.964;2024-02-26T15:23:00;12.50;99.90
18335;DHT22;9293;49.524;10.964;2024-02-26T15:25:29;12.50;99.90
18335;DHT22;9293;49.524;10.964;2024-02-26T15:27:57;12.40;99.90
18335;DHT22;9293;49.524;10.964;2024-02-26T15:30:25;12.30;99.90
18335;DHT22;9293;49.524;10.964;2024-02-26T15:32:55;12.20;99.90
18335;DHT22;9293;49.524;10.964;2024-02-26T15:35:24;12.10;99.90
18335;DHT22;9293;49.524;10.964;2024-02-26T15:37:52;12.00;99.90
18335;DHT22;9293;49.524;10.964;2024-02-26T15:40:21;12.00;99.90
18335;DHT22;9293;49.524;10.964;2024-02-26T15:42:49;11.90;99.90
18335;DHT22;9293;49.524;10.964;2024-02-26T15:45:18;11.90;99.90
18335;DHT22;9293;49.524;10.964;2024-02-26T15:47:47;11.80;99.90
18335;DHT22;9293;49.524;10.964;2024-02-26T15:50:16;11.70;99.90
18335;DHT22;9293;49.524;10.964;2024-02-26T15:52:44;11.70;99.90
18335;DHT22;9293;49.524;10.964;2024-02-26T15:55:12;11.60;99.90
18335;DHT22;9293;49.524;10.964;2024-02-26T15:57:45;11.60;99.90
18335;DHT22;9293;49.524;10.964;2024-02-26T16:00:13;11.50;99.90